createdAt,value
2022-12-29T00:07:06.956Z,10.1
2022-12-29T00:09:08.186Z,10.1
2022-12-29T00:11:09.429Z,10.2
2022-12-29T00:17:17.473Z,10.2
2022-12-29T00:19:18.735Z,10.2
2022-12-29T00:21:19.948Z,10.2
2022-12-29T00:23:21.206Z,10.2
2022-12-29T00:25:22.471Z,10.2
2022-12-29T00:27:26.949Z,10.3
2022-12-29T00:29:28.179Z,10.3
2022-12-29T00:31:29.528Z,10.2
2022-12-29T00:33:30.666Z,10.2
2022-12-29T00:37:33.168Z,10.3
2022-12-29T00:39:34.443Z,10.3
2022-12-29T00:41:38.945Z,10.3
2022-12-29T00:43:40.220Z,10.2
2022-12-29T00:45:41.437Z,10.3
2022-12-29T00:46:43.719Z,10.3
2022-12-29T00:48:44.932Z,10.3
2022-12-29T00:50:46.190Z,10.3
2022-12-29T00:52:47.401Z,10.3
2022-12-29T00:54:51.939Z,10.3
2022-12-29T00:56:53.201Z,10.3
2022-12-29T00:58:54.431Z,10.3
2022-12-29T01:02:56.999Z,10.3
2022-12-29T01:04:58.122Z,10.3
2022-12-29T01:06:59.345Z,10.3
2022-12-29T01:09:03.885Z,10.2
2022-12-29T01:11:05.158Z,10.2
2022-12-29T01:13:06.404Z,10.2
2022-12-29T01:15:07.632Z,10.2
2022-12-29T01:17:08.888Z,10.2
2022-12-29T01:19:10.141Z,10.2
2022-12-29T01:21:11.401Z,10.3
2022-12-29T01:23:17.468Z,10.2
2022-12-29T01:25:18.664Z,10.2
2022-12-29T01:27:19.911Z,10.2
2022-12-29T01:29:21.129Z,10.3
2022-12-29T01:31:22.434Z,10.3
2022-12-29T01:33:23.614Z,10.3
2022-12-29T01:35:24.835Z,10.3
2022-12-29T01:37:29.352Z,10.2
2022-12-29T01:39:30.611Z,10.1
2022-12-29T01:41:31.857Z,10.1
2022-12-29T01:42:34.088Z,10.1
2022-12-29T01:44:35.342Z,10.1
2022-12-29T01:46:36.600Z,10.2
2022-12-29T01:48:37.845Z,10.1
2022-12-29T01:50:42.352Z,10
2022-12-29T01:52:43.593Z,10
2022-12-29T01:54:44.822Z,9.9
2022-12-29T01:56:46.053Z,9.9
2022-12-29T01:58:47.323Z,10
2022-12-29T02:00:48.599Z,10
2022-12-29T02:02:49.818Z,10.1
2022-12-29T02:04:54.322Z,10.1
2022-12-29T02:06:55.537Z,10.1
2022-12-29T02:08:56.771Z,10.1
2022-12-29T02:10:57.985Z,10
2022-12-29T02:12:59.230Z,10.1
2022-12-29T02:15:00.494Z,10
2022-12-29T02:17:01.720Z,10.1
2022-12-29T02:19:06.246Z,10.1
2022-12-29T02:21:07.506Z,10.2
2022-12-29T02:23:08.739Z,10.2
2022-12-29T02:25:10.013Z,10
2022-12-29T02:27:11.223Z,9.9
2022-12-29T02:29:12.479Z,9.9
2022-12-29T02:31:13.762Z,9.9
2022-12-29T02:33:18.219Z,10
2022-12-29T02:35:19.444Z,10
2022-12-29T02:37:20.669Z,10
2022-12-29T02:38:22.936Z,10.1
2022-12-29T02:40:24.162Z,10.1
2022-12-29T02:42:25.431Z,10.1
2022-12-29T02:44:26.682Z,10.1
2022-12-29T02:46:31.183Z,10
2022-12-29T02:48:32.427Z,10.1
2022-12-29T02:50:33.690Z,10.1
2022-12-29T02:52:34.905Z,10.1
2022-12-29T02:54:36.164Z,10.1
2022-12-29T02:56:37.394Z,10.1
2022-12-29T02:58:38.646Z,10.2
2022-12-29T03:00:43.202Z,10.2
2022-12-29T03:02:44.488Z,10.2
2022-12-29T03:04:45.619Z,10.2
2022-12-29T03:06:46.858Z,10.2
2022-12-29T03:08:48.092Z,10.1
2022-12-29T03:10:49.353Z,10.1
2022-12-29T03:12:50.599Z,10.1
2022-12-29T03:14:55.088Z,10.1
2022-12-29T03:16:56.465Z,10.1
2022-12-29T03:18:57.595Z,10.1
2022-12-29T03:20:58.823Z,10.1
2022-12-29T03:23:00.062Z,10.1
2022-12-29T03:25:01.334Z,10.1
2022-12-29T03:27:02.543Z,10.1
2022-12-29T03:29:07.047Z,10.1
2022-12-29T03:31:08.354Z,10.1
2022-12-29T03:33:09.550Z,10
2022-12-29T03:35:29.770Z,10
2022-12-29T03:37:31.039Z,10
2022-12-29T03:39:32.278Z,10
2022-12-29T03:41:36.785Z,10
2022-12-29T03:43:38.009Z,10
2022-12-29T03:45:39.281Z,9.9
2022-12-29T03:47:40.500Z,10
2022-12-29T03:49:41.795Z,9.9
2022-12-29T03:51:43.004Z,9.9
2022-12-29T03:53:44.233Z,9.9
2022-12-29T03:55:48.722Z,9.9
2022-12-29T03:59:51.222Z,9.9
2022-12-29T04:01:52.532Z,9.9
2022-12-29T04:03:53.698Z,9.9
2022-12-29T04:05:54.919Z,9.9
2022-12-29T04:07:56.156Z,9.9
2022-12-29T04:10:00.693Z,9.9
2022-12-29T04:12:01.921Z,9.9
2022-12-29T04:14:03.152Z,9.9
2022-12-29T04:16:04.401Z,9.9
2022-12-29T04:18:05.634Z,9.9
2022-12-29T04:20:06.888Z,9.9
2022-12-29T04:22:08.116Z,9.9
2022-12-29T04:24:12.596Z,9.9
2022-12-29T04:26:13.837Z,9.9
2022-12-29T04:28:15.091Z,9.9
2022-12-29T04:29:17.331Z,9.9
2022-12-29T04:31:18.806Z,9.9
2022-12-29T04:33:19.823Z,9.9
2022-12-29T04:37:25.601Z,9.9
2022-12-29T04:39:26.836Z,9.9
2022-12-29T04:41:28.069Z,9.9
2022-12-29T04:43:29.315Z,9.9
2022-12-29T04:49:33.023Z,9.9
2022-12-29T04:51:37.558Z,9.9
2022-12-29T04:53:38.803Z,9.9
2022-12-29T04:55:40.044Z,10
2022-12-29T04:59:42.536Z,10
2022-12-29T05:01:43.895Z,9.9
2022-12-29T05:09:52.013Z,10
2022-12-29T05:11:53.253Z,10
2022-12-29T05:13:54.499Z,9.9
2022-12-29T05:15:55.916Z,10
2022-12-29T05:17:56.990Z,9.6
2022-12-29T05:20:01.472Z,9.7
2022-12-29T05:22:02.714Z,9.8
2022-12-29T05:24:03.978Z,10.1
2022-12-29T05:25:06.225Z,10.3
2022-12-29T05:33:14.419Z,10.4
2022-12-29T05:37:16.888Z,10.4
2022-12-29T05:39:18.157Z,10.4
2022-12-29T05:41:19.402Z,10.5
2022-12-29T05:47:26.372Z,10.4
2022-12-29T05:53:30.096Z,10.3
2022-12-29T05:57:32.555Z,10.4
2022-12-29T05:59:33.806Z,10.4
2022-12-29T06:01:38.458Z,10.4
2022-12-29T06:03:44.462Z,10.4
2022-12-29T06:05:40.789Z,10.4
2022-12-29T06:07:42.023Z,10.4
2022-12-29T06:09:43.255Z,10.3
2022-12-29T06:11:44.473Z,10.3
2022-12-29T06:13:45.748Z,10.4
2022-12-29T06:15:50.232Z,10
2022-12-29T06:17:51.477Z,9.8
2022-12-29T06:19:52.753Z,9.8
2022-12-29T06:25:03.035Z,9.8
2022-12-29T06:26:58.656Z,9.9
2022-12-29T06:29:03.188Z,10
2022-12-29T06:31:04.404Z,10
2022-12-29T06:33:05.626Z,10
2022-12-29T06:35:06.882Z,10
2022-12-29T06:37:08.104Z,10
2022-12-29T06:39:09.365Z,9.9
2022-12-29T06:41:10.560Z,9.8
2022-12-29T06:43:15.093Z,9.5
2022-12-29T06:45:16.317Z,9.5
2022-12-29T06:47:17.551Z,9.5
2022-12-29T06:49:18.828Z,9.4
2022-12-29T06:51:20.023Z,9.1
2022-12-29T06:55:22.773Z,8.9
2022-12-29T06:57:27.260Z,8.8
2022-12-29T06:59:28.485Z,8.8
2022-12-29T07:05:32.206Z,8.8
2022-12-29T07:07:33.458Z,8.8
2022-12-29T07:09:34.680Z,8.9
2022-12-29T07:11:39.171Z,8.9
2022-12-29T07:13:41.975Z,8.9
2022-12-29T07:15:43.159Z,8.9
2022-12-29T07:18:11.511Z,9
2022-12-29T07:20:12.736Z,9.1
2022-12-29T07:22:13.955Z,9.1
2022-12-29T07:24:18.488Z,9
2022-12-29T07:26:19.683Z,9.1
2022-12-29T07:28:20.923Z,9
2022-12-29T07:30:22.127Z,9
2022-12-29T07:32:23.377Z,9.1
2022-12-29T07:34:24.626Z,9
2022-12-29T07:36:29.391Z,9
2022-12-29T07:38:30.336Z,8.7
2022-12-29T07:40:31.574Z,8.5
2022-12-29T07:42:32.805Z,8.6
2022-12-29T07:44:34.036Z,8.6
2022-12-29T07:46:54.305Z,8.4
2022-12-29T07:48:36.489Z,8.3
2022-12-29T07:50:37.722Z,8.2
2022-12-29T07:52:42.227Z,8.1
2022-12-29T07:54:43.463Z,8.1
2022-12-29T07:56:44.663Z,8.1
2022-12-29T07:58:45.945Z,8.1
2022-12-29T08:00:47.155Z,8.1
2022-12-29T08:02:48.421Z,8.1
2022-12-29T08:04:49.602Z,8.1
2022-12-29T08:06:54.088Z,8.2
2022-12-29T08:08:55.319Z,8.2
2022-12-29T08:10:56.544Z,8.2
2022-12-29T08:11:58.769Z,8.3
2022-12-29T08:14:00.000Z,8.3
2022-12-29T08:16:01.358Z,8.3
2022-12-29T08:18:02.473Z,8.4
2022-12-29T08:20:06.972Z,8.5
2022-12-29T08:22:08.180Z,8.4
2022-12-29T08:24:09.434Z,8.4
2022-12-29T08:26:10.622Z,8.6
2022-12-29T08:28:11.853Z,8.7
2022-12-29T08:30:13.083Z,8.7
2022-12-29T08:32:14.336Z,8.7
2022-12-29T08:34:18.814Z,8.8
2022-12-29T08:36:20.051Z,8.9
2022-12-29T08:38:21.269Z,8.9
2022-12-29T08:40:22.508Z,9
2022-12-29T08:42:23.714Z,9
2022-12-29T08:44:24.944Z,9.1
2022-12-29T08:46:26.218Z,9.2
2022-12-29T08:48:30.648Z,9.3
2022-12-29T08:50:31.887Z,9.3
2022-12-29T08:52:33.097Z,9.4
2022-12-29T08:54:34.350Z,9.4
2022-12-29T08:56:35.557Z,9.5
2022-12-29T08:58:36.794Z,9.7
2022-12-29T09:00:38.000Z,9.8
2022-12-29T09:02:42.721Z,9.7
2022-12-29T09:04:43.827Z,9.6
2022-12-29T09:06:45.021Z,9.6
2022-12-29T09:07:47.235Z,9.6
2022-12-29T09:09:48.463Z,9.7
2022-12-29T09:11:49.696Z,9.6
2022-12-29T09:13:50.919Z,9.6
2022-12-29T09:15:55.447Z,9.5
2022-12-29T09:17:56.664Z,9.4
2022-12-29T09:19:57.883Z,9.3
2022-12-29T09:21:59.103Z,9.2
2022-12-29T09:24:00.379Z,9.2
2022-12-29T09:26:01.631Z,9.3
2022-12-29T09:28:02.831Z,9.4
2022-12-29T09:30:07.309Z,9.6
2022-12-29T09:36:11.000Z,9.7
2022-12-29T09:38:12.253Z,9.7
2022-12-29T09:40:13.520Z,9.6
2022-12-29T09:42:14.704Z,9.5
2022-12-29T09:44:19.223Z,9.4
2022-12-29T09:46:20.592Z,9.4
2022-12-29T09:48:21.713Z,9.3
2022-12-29T09:52:24.196Z,9.5
2022-12-29T09:54:25.417Z,9.6
2022-12-29T09:56:26.652Z,9.7
2022-12-29T09:58:31.111Z,9.5
2022-12-29T10:00:32.407Z,9.4
2022-12-29T10:02:33.675Z,9.2
2022-12-29T10:03:35.861Z,9.2
2022-12-29T10:05:37.074Z,9.1
2022-12-29T10:07:38.290Z,9.2
2022-12-29T10:09:39.528Z,9.1
2022-12-29T10:11:44.039Z,9
2022-12-29T10:13:45.289Z,8.9
2022-12-29T10:15:46.517Z,8.7
2022-12-29T10:17:47.751Z,8.6
2022-12-29T10:19:48.993Z,8.6
2022-12-29T10:21:50.245Z,8.7
2022-12-29T10:23:51.442Z,8.6
2022-12-29T10:25:55.961Z,8.6
2022-12-29T10:29:58.415Z,8.7
2022-12-29T10:34:00.881Z,8.6
2022-12-29T10:36:02.131Z,8.7
2022-12-29T10:38:03.389Z,8.7
2022-12-29T10:40:07.866Z,8.8
2022-12-29T10:42:09.097Z,8.9
2022-12-29T10:44:10.338Z,8.9
2022-12-29T10:46:11.603Z,8.9
2022-12-29T10:48:12.804Z,8.9
2022-12-29T10:50:14.021Z,8.8
2022-12-29T10:52:15.285Z,8.7
2022-12-29T10:56:21.004Z,8.7
2022-12-29T10:58:22.240Z,8.7
2022-12-29T11:00:50.650Z,8.7
2022-12-29T11:02:52.061Z,8.6
2022-12-29T11:04:53.023Z,8.6
2022-12-29T11:06:57.521Z,8.6
2022-12-29T11:08:58.766Z,8.6
2022-12-29T11:13:01.226Z,8.7
2022-12-29T11:15:02.510Z,8.8
2022-12-29T11:17:03.727Z,8.8
2022-12-29T11:19:04.992Z,8.9
2022-12-29T11:21:09.449Z,9
2022-12-29T11:23:10.667Z,8.9
2022-12-29T11:25:11.907Z,8.9
2022-12-29T11:27:13.146Z,9
2022-12-29T11:29:14.356Z,9
2022-12-29T11:31:15.608Z,8.9
2022-12-29T11:33:16.827Z,8.9
2022-12-29T11:35:21.334Z,8.8
2022-12-29T11:37:22.579Z,8.7
2022-12-29T11:39:23.789Z,8.7
2022-12-29T11:41:25.039Z,8.8
2022-12-29T11:43:26.247Z,8.8
2022-12-29T11:45:27.485Z,8.9
2022-12-29T11:47:28.728Z,8.9
2022-12-29T11:49:33.199Z,8.9
2022-12-29T11:51:34.427Z,9
2022-12-29T11:53:35.669Z,9
2022-12-29T11:54:37.910Z,9
2022-12-29T11:56:41.332Z,9
2022-12-29T11:58:40.350Z,9
2022-12-29T12:00:41.604Z,9
2022-12-29T12:02:46.158Z,9
2022-12-29T12:04:47.326Z,9.1
2022-12-29T12:08:49.809Z,9.1
2022-12-29T12:10:51.027Z,9
2022-12-29T12:16:58.078Z,8.9
2022-12-29T12:18:59.233Z,8.9
2022-12-29T12:21:00.460Z,8.9
2022-12-29T12:23:01.694Z,8.9
2022-12-29T12:25:02.969Z,8.9
2022-12-29T12:27:04.193Z,8.9
2022-12-29T12:29:05.448Z,8.9
2022-12-29T12:31:09.974Z,9
2022-12-29T12:33:11.164Z,9
2022-12-29T12:35:16.805Z,9
2022-12-29T12:37:13.616Z,8.9
2022-12-29T12:39:14.863Z,9
2022-12-29T12:41:21.345Z,9
2022-12-29T12:43:17.343Z,8.9
2022-12-29T12:45:21.882Z,8.8
2022-12-29T12:47:24.573Z,8.8
2022-12-29T12:49:24.322Z,8.7
2022-12-29T12:50:26.545Z,8.7
2022-12-29T12:52:27.804Z,8.8
2022-12-29T12:54:29.031Z,8.9
2022-12-29T12:56:30.285Z,8.9
2022-12-29T12:58:34.765Z,9
2022-12-29T13:00:36.009Z,9.1
2022-12-29T13:02:39.025Z,9.2
2022-12-29T13:04:40.009Z,9.3
2022-12-29T13:06:41.233Z,9.3
2022-12-29T13:08:42.467Z,9.4
2022-12-29T13:10:48.369Z,9.4
2022-12-29T13:12:48.216Z,9.5
2022-12-29T13:14:49.438Z,9.6
2022-12-29T13:16:50.659Z,9.6
2022-12-29T13:18:51.899Z,9.7
2022-12-29T13:20:53.168Z,9.7
2022-12-29T13:22:54.388Z,9.7
2022-12-29T13:24:55.610Z,9.8
2022-12-29T13:27:00.893Z,9.8
2022-12-29T13:29:02.125Z,9.8
2022-12-29T13:31:03.415Z,9.8
2022-12-29T13:33:04.607Z,9.9
2022-12-29T13:37:07.082Z,9.8
2022-12-29T13:39:08.307Z,9.9
2022-12-29T13:41:12.801Z,9.9
2022-12-29T13:43:14.037Z,9.9
2022-12-29T13:45:15.255Z,9.9
2022-12-29T13:52:21.215Z,9.9
2022-12-29T13:54:25.702Z,9.9
2022-12-29T13:56:26.939Z,9.9
2022-12-29T13:58:28.175Z,9.9
2022-12-29T14:00:29.438Z,9.8
2022-12-29T14:02:30.808Z,9.9
2022-12-29T14:06:33.147Z,9.7
2022-12-29T14:08:37.605Z,9.5
2022-12-29T14:18:43.785Z,9.2
2022-12-29T14:20:45.020Z,9.2
2022-12-29T14:24:50.752Z,9.2
2022-12-29T14:26:51.996Z,9.2
2022-12-29T14:28:53.228Z,9.2
2022-12-29T14:30:54.447Z,9.3
2022-12-29T14:32:55.689Z,9.3
2022-12-29T14:34:56.920Z,9.2
2022-12-29T14:37:01.411Z,9.2
2022-12-29T14:39:02.632Z,9.2
2022-12-29T14:41:07.548Z,9.2
2022-12-29T14:43:32.200Z,9.2
2022-12-29T14:45:33.462Z,9.2
2022-12-29T14:47:34.669Z,9.2
2022-12-29T14:49:39.158Z,9.2
2022-12-29T14:51:40.394Z,9.2
2022-12-29T14:53:41.646Z,9
2022-12-29T14:55:42.876Z,8.9
2022-12-29T14:57:44.081Z,9
2022-12-29T14:59:45.316Z,8.9
2022-12-29T15:01:46.695Z,8.9
2022-12-29T15:03:51.073Z,8.9
2022-12-29T15:05:52.297Z,8.9
2022-12-29T15:07:53.517Z,8.7
2022-12-29T15:09:54.789Z,8.4
2022-12-29T15:11:55.968Z,8.2
2022-12-29T15:13:57.233Z,8.1
2022-12-29T15:18:02.921Z,7.9
2022-12-29T15:20:04.168Z,7.9
2022-12-29T15:28:09.084Z,7.8
2022-12-29T15:30:12.761Z,7.9
2022-12-29T15:32:14.822Z,7.9
2022-12-29T15:34:16.097Z,7.9
2022-12-29T15:36:17.270Z,7.9
2022-12-29T15:43:23.225Z,8
2022-12-29T15:45:27.733Z,8.1
2022-12-29T15:47:28.931Z,8.1
2022-12-29T15:49:32.488Z,8.1
2022-12-29T15:51:31.390Z,8.2
2022-12-29T15:53:32.617Z,8.2
2022-12-29T15:55:33.866Z,8.2
2022-12-29T15:57:35.086Z,8.2
2022-12-29T16:03:42.038Z,8.2
2022-12-29T16:05:43.250Z,8.3
2022-12-29T16:07:44.485Z,8.3
2022-12-29T16:09:45.732Z,8.3
2022-12-29T16:11:46.967Z,8.3
2022-12-29T16:13:51.439Z,8.4
2022-12-29T16:15:52.667Z,8.4
2022-12-29T16:17:53.959Z,8.4
2022-12-29T16:19:55.171Z,8.4
2022-12-29T16:21:56.377Z,8.4
2022-12-29T16:23:57.590Z,8.4
2022-12-29T16:25:59.010Z,8.4
2022-12-29T16:28:03.333Z,8.5
2022-12-29T16:30:04.559Z,8.4
2022-12-29T16:32:05.778Z,8.5
2022-12-29T16:33:08.033Z,8.5
2022-12-29T16:35:09.255Z,8.5
2022-12-29T16:37:10.507Z,8.4
2022-12-29T16:39:11.720Z,8.4
2022-12-29T16:41:16.229Z,8.4
2022-12-29T16:43:17.443Z,8.4
2022-12-29T16:45:18.692Z,8.4
2022-12-29T16:47:19.934Z,8.5
2022-12-29T16:49:21.191Z,8.4
2022-12-29T16:51:22.369Z,8.4
2022-12-29T16:53:23.612Z,8.4
2022-12-29T16:55:28.131Z,8.6
2022-12-29T16:59:30.579Z,8.6
2022-12-29T17:01:31.890Z,8.6
2022-12-29T17:03:33.098Z,8.7
2022-12-29T17:05:34.275Z,8.8
2022-12-29T17:07:35.516Z,8.8
2022-12-29T17:09:40.021Z,8.8
2022-12-29T17:11:41.253Z,8.8
2022-12-29T17:13:42.580Z,8.8
2022-12-29T17:15:43.808Z,8.8
2022-12-29T17:17:45.017Z,8.8
2022-12-29T17:19:46.203Z,8.8
2022-12-29T17:21:47.433Z,8.7
2022-12-29T17:23:51.918Z,8.7
2022-12-29T17:25:53.156Z,8.7
2022-12-29T17:27:54.381Z,8.7
2022-12-29T17:28:56.639Z,8.6
2022-12-29T17:35:00.360Z,8.6
2022-12-29T17:37:04.867Z,8.5
2022-12-29T17:39:06.076Z,8.5
2022-12-29T17:41:07.325Z,8.5
2022-12-29T17:43:08.548Z,8.4
2022-12-29T17:45:09.791Z,8.4
2022-12-29T17:47:11.008Z,8.4
2022-12-29T17:49:12.267Z,8.4
2022-12-29T17:51:16.744Z,8.4
2022-12-29T17:53:17.948Z,8.4
2022-12-29T17:55:19.190Z,8.3
2022-12-29T17:57:20.402Z,8.3
2022-12-29T17:59:21.649Z,8.3
2022-12-29T18:01:22.982Z,8.3
2022-12-29T18:03:24.225Z,8.2
2022-12-29T18:05:28.568Z,8.2
2022-12-29T18:07:35.366Z,8.2
2022-12-29T18:09:31.055Z,8.2
2022-12-29T18:11:32.268Z,8.2
2022-12-29T18:13:45.533Z,8.2
2022-12-29T18:15:34.743Z,8.2
2022-12-29T18:17:35.987Z,8.2
2022-12-29T18:21:41.699Z,8.2
2022-12-29T18:23:42.913Z,8.2
2022-12-29T18:26:11.251Z,8.2
2022-12-29T18:28:12.490Z,8.2
2022-12-29T18:30:13.725Z,8.2
2022-12-29T18:32:18.200Z,8.2
2022-12-29T18:42:24.367Z,8.2
2022-12-29T18:44:25.583Z,8.1
2022-12-29T18:46:30.149Z,8.2
2022-12-29T18:48:31.307Z,8.1
2022-12-29T18:50:32.538Z,8.2
2022-12-29T18:54:36.490Z,8.2
2022-12-29T18:56:39.257Z,8.2
2022-12-29T18:58:40.471Z,8.2
2022-12-29T19:00:45.109Z,8.2
2022-12-29T19:02:46.155Z,8.1
2022-12-29T19:04:51.440Z,8.1
2022-12-29T19:06:48.605Z,8.1
2022-12-29T19:08:49.860Z,8.1
2022-12-29T19:10:51.132Z,8
2022-12-29T19:12:52.293Z,8
2022-12-29T19:14:56.818Z,7.9
2022-12-29T19:16:58.044Z,8
2022-12-29T19:19:08.779Z,8
2022-12-29T19:22:02.742Z,7.9
2022-12-29T19:24:03.985Z,8
2022-12-29T19:26:05.209Z,7.9
2022-12-29T19:28:09.702Z,7.9
2022-12-29T19:30:10.919Z,7.9
2022-12-29T19:32:12.135Z,7.9
2022-12-29T19:34:13.370Z,7.9
2022-12-29T19:38:15.813Z,7.8
2022-12-29T19:40:17.019Z,7.8
2022-12-29T19:42:21.512Z,7.8
2022-12-29T19:44:22.739Z,7.8
2022-12-29T19:46:23.997Z,7.8
2022-12-29T19:50:26.421Z,7.8
2022-12-29T19:54:28.872Z,7.7
2022-12-29T19:56:33.338Z,7.7
2022-12-29T19:58:34.636Z,7.7
2022-12-29T20:00:35.812Z,7.7
2022-12-29T20:02:37.242Z,7.7
2022-12-29T20:04:38.262Z,7.6
2022-12-29T20:06:39.496Z,7.6
2022-12-29T20:08:40.823Z,7.6
2022-12-29T20:10:45.191Z,7.6
2022-12-29T20:12:46.434Z,7.6
2022-12-29T20:14:47.628Z,7.6
2022-12-29T20:18:13.191Z,7.6
2022-12-29T20:19:52.303Z,7.6
2022-12-29T20:21:53.541Z,7.6
2022-12-29T20:23:57.996Z,7.6
2022-12-29T20:25:59.224Z,7.6
2022-12-29T20:28:00.460Z,7.6
2022-12-29T20:30:01.685Z,7.6
2022-12-29T20:32:02.992Z,7.5
2022-12-29T20:34:04.088Z,7.5
2022-12-29T20:36:05.310Z,7.5
2022-12-29T20:40:11.003Z,7.5
2022-12-29T20:44:13.473Z,7.5
2022-12-29T20:46:19.547Z,7.5
2022-12-29T20:48:15.889Z,7.5
2022-12-29T20:50:17.121Z,7.4
2022-12-29T20:52:21.629Z,7.4
2022-12-29T20:54:22.835Z,7.4
2022-12-29T20:56:24.064Z,7.4
2022-12-29T20:58:25.759Z,7.4
2022-12-29T21:00:26.496Z,7.4
2022-12-29T21:02:27.794Z,7.4
2022-12-29T21:06:33.400Z,7.4
2022-12-29T21:11:38.079Z,7.4
2022-12-29T21:13:39.322Z,7.4
2022-12-29T21:15:40.547Z,7.4
2022-12-29T21:17:41.750Z,7.4
2022-12-29T21:19:46.219Z,7.3
2022-12-29T21:21:47.500Z,7.3
2022-12-29T21:23:48.691Z,7.4
2022-12-29T21:25:49.965Z,7.4
2022-12-29T21:27:51.174Z,7.4
2022-12-29T21:29:52.378Z,7.4
2022-12-29T21:31:53.605Z,7.5
2022-12-29T21:33:58.107Z,7.5
2022-12-29T21:35:59.300Z,7.5
2022-12-29T21:42:02.983Z,7.5
2022-12-29T21:44:04.245Z,7.5
2022-12-29T21:46:05.481Z,7.5
2022-12-29T21:48:09.863Z,7.5
2022-12-29T21:50:11.092Z,7.5
2022-12-29T21:52:12.295Z,7.5
2022-12-29T21:54:13.519Z,7.5
2022-12-29T21:56:14.755Z,7.5
2022-12-29T21:58:15.956Z,7.5
2022-12-29T22:00:17.196Z,7.5
2022-12-29T22:02:21.955Z,7.5
2022-12-29T22:04:22.912Z,7.5
2022-12-29T22:06:24.119Z,7.5
2022-12-29T22:08:52.450Z,7.5
2022-12-29T22:10:53.686Z,7.5
2022-12-29T22:12:54.923Z,7.5
2022-12-29T22:14:59.371Z,7.5
2022-12-29T22:17:00.607Z,7.5
2022-12-29T22:19:01.856Z,7.4
2022-12-29T22:21:03.070Z,7.4
2022-12-29T22:23:04.306Z,7.4
2022-12-29T22:25:05.528Z,7.4
2022-12-29T22:27:06.752Z,7.4
2022-12-29T22:29:11.225Z,7.3
2022-12-29T22:31:12.481Z,7.3
2022-12-29T22:33:13.645Z,7.2
2022-12-29T22:35:14.868Z,7.2
2022-12-29T22:37:16.103Z,7.2
2022-12-29T22:39:17.327Z,7.2
2022-12-29T22:41:18.522Z,7.1
2022-12-29T22:43:22.999Z,7.1
2022-12-29T22:45:24.234Z,7.1
2022-12-29T22:47:25.486Z,7.1
2022-12-29T22:49:26.705Z,7.1
2022-12-29T22:51:27.909Z,7
2022-12-29T22:53:29.150Z,7
2022-12-29T22:55:30.342Z,7
2022-12-29T22:57:34.858Z,6.9
2022-12-29T22:59:36.085Z,6.9
2022-12-29T23:01:37.357Z,6.9
2022-12-29T23:08:43.147Z,6.9
2022-12-29T23:16:51.249Z,6.9
2022-12-29T23:18:52.464Z,7
2022-12-29T23:20:53.691Z,7
2022-12-29T23:22:54.912Z,7
2022-12-29T23:24:59.371Z,6.9
2022-12-29T23:27:00.579Z,6.9
2022-12-29T23:31:03.023Z,6.9
2022-12-29T23:33:04.229Z,6.9
2022-12-29T23:35:05.449Z,6.9
2022-12-29T23:37:06.701Z,6.9
2022-12-29T23:39:11.171Z,6.8
2022-12-29T23:41:12.347Z,6.9
2022-12-29T23:43:13.560Z,6.9
2022-12-29T23:45:14.779Z,6.8
2022-12-29T23:47:16.005Z,6.9
2022-12-29T23:49:17.206Z,6.9
2022-12-29T23:51:18.439Z,6.8
2022-12-29T23:53:22.896Z,6.8
2022-12-29T23:55:24.108Z,6.8
2022-12-29T23:57:25.356Z,6.8
2022-12-29T23:58:27.735Z,6.8
